Terminal Aerodrome Forecast
Issued by NWS Bismarck, ND

Home | Current Version | Previous Version | Graphics & Text | Print | Product List | Glossary On
Versions: 1 2 3 4 5 6 7 8 9 10 11 12 13 14 15 16
000
FTUS43 KBIS 290800 AAA
TAFISN
TAF AMD
KISN 290810Z 2908/3006 33012G17KT P6SM BKN018 OVC025
     FM291200 32008KT P6SM SCT015 OVC020
      TEMPO 2917/2921 VRB03KT SCT015
     FM292100 17003KT P6SM SCT018 BKN140
     FM300200 15006KT P6SM FEW020 BKN160=

USA.gov is the U.S. government's official web portal to all federal, state and local government web resources and services.